createdAt,value
2023-01-18T00:00:34.193Z,1.00
2023-01-18T00:03:02.699Z,1.00
2023-01-18T00:05:31.006Z,28.20
2023-01-18T00:07:59.325Z,99.50
2023-01-18T00:10:29.076Z,99.90
2023-01-18T00:12:57.763Z,99.90
2023-01-18T00:15:26.198Z,99.90
2023-01-18T00:17:54.411Z,99.90
2023-01-18T00:20:23.438Z,99.90
2023-01-18T00:22:51.770Z,99.90
2023-01-18T00:25:20.597Z,99.90
2023-01-18T00:27:50.873Z,99.90
2023-01-18T00:30:20.791Z,99.90
2023-01-18T00:32:49.066Z,99.90
2023-01-18T00:35:17.565Z,99.90
2023-01-18T00:37:46.391Z,1.00
2023-01-18T00:40:14.797Z,1.00
2023-01-18T00:43:00.271Z,1.00
2023-01-18T00:45:30.190Z,1.00
2023-01-18T00:47:58.484Z,1.00
2023-01-18T00:50:26.804Z,1.00
2023-01-18T00:52:57.743Z,1.00
2023-01-18T00:55:26.542Z,1.00
2023-01-18T00:57:54.867Z,1.00
2023-01-18T01:00:26.908Z,1.00
2023-01-18T01:02:56.925Z,1.00
2023-01-18T01:05:44.195Z,1.00
2023-01-18T01:08:17.010Z,1.00
2023-01-18T01:10:46.384Z,1.00
2023-01-18T01:13:32.052Z,1.00
2023-01-18T01:16:17.670Z,1.00
2023-01-18T01:19:04.888Z,1.00
2023-01-18T01:21:50.133Z,1.00
2023-01-18T01:24:35.857Z,1.00
2023-01-18T01:27:04.223Z,1.00
2023-01-18T01:29:32.509Z,30.80
2023-01-18T01:32:00.765Z,92.00
2023-01-18T01:34:30.815Z,84.80
2023-01-18T01:36:59.054Z,99.90
2023-01-18T01:39:27.376Z,99.90
2023-01-18T01:41:55.602Z,1.00
2023-01-18T01:44:50.235Z,1.00
2023-01-18T01:47:27.190Z,99.90
2023-01-18T01:49:58.815Z,1.00
2023-01-18T01:52:29.117Z,1.00
2023-01-18T01:54:59.488Z,1.00
2023-01-18T01:57:28.327Z,99.90
2023-01-18T01:59:59.071Z,1.00
2023-01-18T02:02:27.441Z,1.00
2023-01-18T02:04:57.157Z,1.00
2023-01-18T02:07:26.356Z,1.00
2023-01-18T02:09:54.689Z,1.00
2023-01-18T02:12:23.167Z,1.00
2023-01-18T02:14:51.465Z,1.00
2023-01-18T02:17:31.733Z,1.00
2023-01-18T02:20:37.911Z,1.00
2023-01-18T02:23:35.432Z,1.00
2023-01-18T02:26:44.956Z,1.00
2023-01-18T02:29:17.655Z,1.00
2023-01-18T02:31:58.192Z,46.00
2023-01-18T02:34:31.670Z,99.90
2023-01-18T02:37:05.473Z,99.90
2023-01-18T02:39:38.419Z,99.90
2023-01-18T02:42:28.333Z,99.90
2023-01-18T02:45:15.830Z,99.90
2023-01-18T02:47:44.075Z,42.40
2023-01-18T02:50:12.690Z,99.90
2023-01-18T02:52:42.125Z,1.00
2023-01-18T02:55:13.417Z,99.90
2023-01-18T02:57:41.685Z,99.90
2023-01-18T03:00:12.954Z,99.90
2023-01-18T03:02:41.227Z,99.90
2023-01-18T03:05:10.639Z,1.00
2023-01-18T03:07:42.835Z,1.00
2023-01-18T03:10:12.465Z,1.00
2023-01-18T03:12:47.185Z,99.90
2023-01-18T03:15:20.542Z,1.00
2023-01-18T03:17:51.629Z,99.90
2023-01-18T03:20:25.695Z,1.00
2023-01-18T03:23:28.708Z,1.00
2023-01-18T03:25:58.279Z,99.90
2023-01-18T03:28:46.146Z,1.00
2023-01-18T03:31:34.869Z,1.00
2023-01-18T03:34:05.599Z,1.00
2023-01-18T03:36:34.647Z,1.00
2023-01-18T03:39:03.726Z,1.00
2023-01-18T03:41:33.592Z,1.00
2023-01-18T03:44:03.890Z,99.90
2023-01-18T03:46:33.824Z,99.90
2023-01-18T03:49:02.070Z,99.90
2023-01-18T03:51:40.906Z,1.00
2023-01-18T03:54:12.547Z,1.00
2023-01-18T03:56:44.005Z,99.90
2023-01-18T03:59:12.222Z,99.90
2023-01-18T04:01:44.503Z,99.90
2023-01-18T04:04:12.818Z,99.90
2023-01-18T04:06:41.335Z,99.90
2023-01-18T04:09:09.610Z,99.90
2023-01-18T04:11:38.006Z,99.90
2023-01-18T04:14:06.281Z,1.00
2023-01-18T04:16:34.544Z,1.00
2023-01-18T04:19:04.362Z,1.00
2023-01-18T04:21:32.631Z,1.00
2023-01-18T04:24:00.900Z,99.90
2023-01-18T04:26:30.050Z,99.90
2023-01-18T04:28:58.347Z,99.90
2023-01-18T04:31:26.980Z,99.90
2023-01-18T04:33:55.340Z,1.00
2023-01-18T04:36:25.086Z,1.00
2023-01-18T04:38:56.490Z,1.00
2023-01-18T04:41:24.968Z,1.00
2023-01-18T04:43:53.268Z,99.90
2023-01-18T04:46:21.654Z,99.90
2023-01-18T04:48:52.721Z,99.90
2023-01-18T04:51:20.999Z,99.90
2023-01-18T04:53:50.623Z,99.90
2023-01-18T04:56:18.908Z,99.90
2023-01-18T04:58:47.395Z,99.90
2023-01-18T05:01:17.241Z,99.90
2023-01-18T05:03:45.763Z,99.90
2023-01-18T05:06:15.211Z,99.90
2023-01-18T05:08:43.662Z,1.00
2023-01-18T05:11:14.586Z,99.90
2023-01-18T05:13:43.043Z,99.90
2023-01-18T05:16:14.904Z,99.90
2023-01-18T05:18:43.188Z,1.00
2023-01-18T05:21:11.478Z,1.00
2023-01-18T05:23:40.292Z,1.00
2023-01-18T05:26:14.548Z,1.00
2023-01-18T05:28:44.766Z,1.00
2023-01-18T05:31:13.865Z,1.00
2023-01-18T05:33:42.149Z,1.00
2023-01-18T05:36:10.542Z,1.00
2023-01-18T05:38:38.837Z,1.00
2023-01-18T05:41:07.356Z,1.00
2023-01-18T05:43:35.835Z,1.00
2023-01-18T05:46:06.273Z,1.00
2023-01-18T05:48:34.811Z,1.00
2023-01-18T05:51:08.630Z,99.90
2023-01-18T05:53:37.011Z,3.20
2023-01-18T05:56:06.345Z,43.30
2023-01-18T05:58:34.611Z,99.90
2023-01-18T06:01:02.919Z,67.30
2023-01-18T06:03:32.583Z,99.90
2023-01-18T06:06:01.882Z,99.90
2023-01-18T06:08:30.346Z,99.90
2023-01-18T06:11:00.130Z,99.90
2023-01-18T06:13:29.771Z,99.90
2023-01-18T06:15:58.259Z,99.90
2023-01-18T06:18:27.105Z,1.00
2023-01-18T06:20:59.117Z,1.00
2023-01-18T06:23:28.684Z,1.00
2023-01-18T06:25:56.963Z,99.90
2023-01-18T06:28:25.213Z,99.90
2023-01-18T06:30:53.974Z,99.90
2023-01-18T06:33:22.333Z,1.00
2023-01-18T06:35:50.610Z,99.90
2023-01-18T06:38:20.793Z,99.90
2023-01-18T06:40:49.046Z,99.90
2023-01-18T06:43:17.272Z,1.00
2023-01-18T06:45:46.286Z,1.00
2023-01-18T06:48:14.585Z,99.90
2023-01-18T06:50:42.807Z,99.90
2023-01-18T06:53:11.065Z,1.00
2023-01-18T06:55:41.120Z,1.00
2023-01-18T06:58:09.842Z,1.00
2023-01-18T07:00:38.870Z,1.00
2023-01-18T07:03:09.182Z,11.00
2023-01-18T07:05:37.456Z,3.00
2023-01-18T07:08:06.180Z,57.40
2023-01-18T07:10:34.554Z,96.50
2023-01-18T07:13:04.194Z,99.90
2023-01-18T07:15:32.548Z,99.90
2023-01-18T07:18:00.792Z,99.90
2023-01-18T07:20:29.509Z,99.90
2023-01-18T07:22:58.992Z,99.90
2023-01-18T07:25:27.714Z,99.90
2023-01-18T07:27:57.599Z,99.90
2023-01-18T07:30:27.313Z,99.90
2023-01-18T07:32:55.570Z,1.00
2023-01-18T07:35:23.976Z,1.00
2023-01-18T07:37:52.677Z,1.00
2023-01-18T07:40:21.956Z,1.00
2023-01-18T07:42:50.270Z,1.00
2023-01-18T07:45:19.039Z,1.00
2023-01-18T07:47:50.241Z,1.00
2023-01-18T07:50:18.931Z,1.00
2023-01-18T07:52:47.200Z,52.30
2023-01-18T07:55:15.643Z,99.90
2023-01-18T07:57:44.087Z,99.90
2023-01-18T08:00:14.998Z,99.90
2023-01-18T08:02:43.281Z,99.90
2023-01-18T08:05:13.162Z,99.90
2023-01-18T08:07:41.464Z,1.00
2023-01-18T08:10:11.266Z,99.90
2023-01-18T08:12:39.559Z,99.90
2023-01-18T08:15:09.039Z,73.80
2023-01-18T08:17:37.588Z,99.90
2023-01-18T08:20:06.357Z,1.00
2023-01-18T08:22:36.230Z,99.90
2023-01-18T08:25:04.505Z,1.00
2023-01-18T08:27:32.775Z,99.90
2023-01-18T08:30:01.123Z,99.90
2023-01-18T08:32:29.850Z,55.30
2023-01-18T08:34:58.140Z,1.00
2023-01-18T08:37:26.420Z,1.00
2023-01-18T08:39:56.104Z,1.00
2023-01-18T08:42:24.619Z,99.90
2023-01-18T08:44:53.824Z,1.00
2023-01-18T08:47:22.099Z,99.90
2023-01-18T08:49:50.400Z,99.90
2023-01-18T08:52:18.672Z,99.90
2023-01-18T08:54:46.965Z,99.90
2023-01-18T08:57:17.100Z,99.90
2023-01-18T08:59:45.466Z,99.90
2023-01-18T09:02:13.765Z,99.90
2023-01-18T09:04:42.436Z,99.90
2023-01-18T09:07:10.713Z,99.90
2023-01-18T09:09:39.187Z,99.90
2023-01-18T09:12:07.498Z,99.90
2023-01-18T09:14:37.590Z,37.20
2023-01-18T09:17:05.868Z,23.20
2023-01-18T09:19:34.180Z,1.00
2023-01-18T09:22:03.675Z,1.00
2023-01-18T09:24:31.950Z,1.00
2023-01-18T09:27:00.210Z,1.00
2023-01-18T09:29:28.493Z,1.00
2023-01-18T09:31:58.398Z,1.00
2023-01-18T09:34:26.797Z,1.00
2023-01-18T09:36:55.040Z,1.00
2023-01-18T09:39:23.715Z,1.00
2023-01-18T09:41:53.729Z,1.00
2023-01-18T09:44:24.895Z,1.00
2023-01-18T09:46:55.221Z,1.00
2023-01-18T09:49:26.998Z,1.00
2023-01-18T09:51:59.745Z,99.90
2023-01-18T09:54:33.999Z,99.90
2023-01-18T09:57:05.875Z,99.90
2023-01-18T09:59:35.641Z,99.90
2023-01-18T10:02:04.314Z,99.90
2023-01-18T10:04:37.064Z,99.90
2023-01-18T10:07:07.007Z,95.90
2023-01-18T10:09:37.491Z,99.90
2023-01-18T10:12:08.230Z,99.90
2023-01-18T10:14:45.889Z,99.90
2023-01-18T10:17:17.811Z,99.90
2023-01-18T10:19:47.545Z,99.90
2023-01-18T10:22:19.995Z,99.90
2023-01-18T10:24:57.623Z,99.90
2023-01-18T10:27:40.943Z,99.90
2023-01-18T10:30:18.693Z,1.00
2023-01-18T10:32:49.732Z,99.90
2023-01-18T10:35:28.263Z,99.90
2023-01-18T10:37:57.690Z,99.90
2023-01-18T10:40:26.219Z,99.90
2023-01-18T10:42:56.818Z,99.90
2023-01-18T10:45:26.836Z,99.90
2023-01-18T10:47:55.818Z,99.90
2023-01-18T10:50:35.484Z,99.90
2023-01-18T10:53:20.712Z,99.90
2023-01-18T10:55:54.059Z,99.90
2023-01-18T10:58:26.329Z,99.90
2023-01-18T11:00:55.027Z,99.90
2023-01-18T11:03:23.821Z,99.90
2023-01-18T11:05:53.646Z,99.90
2023-01-18T11:08:25.605Z,99.90
2023-01-18T11:10:59.866Z,1.00
2023-01-18T11:13:29.087Z,99.90
2023-01-18T11:16:10.256Z,99.90
2023-01-18T11:18:38.522Z,99.90
2023-01-18T11:21:12.424Z,1.00
2023-01-18T11:23:42.528Z,1.00
2023-01-18T11:26:15.322Z,1.00
2023-01-18T11:28:47.034Z,1.00
2023-01-18T11:31:15.846Z,99.90
2023-01-18T11:33:51.191Z,99.90
2023-01-18T11:36:21.312Z,99.90
2023-01-18T11:38:49.736Z,99.90
2023-01-18T11:41:20.168Z,99.90
2023-01-18T11:44:03.529Z,99.90
2023-01-18T11:46:41.418Z,99.90
2023-01-18T11:49:25.706Z,1.00
2023-01-18T11:51:57.798Z,99.90
2023-01-18T11:54:29.080Z,99.90
2023-01-18T11:56:59.749Z,1.00
2023-01-18T11:59:31.173Z,1.00
2023-01-18T12:02:31.609Z,99.90
2023-01-18T12:05:22.544Z,99.90
2023-01-18T12:07:56.178Z,99.90
2023-01-18T12:10:25.279Z,1.00
2023-01-18T12:13:07.867Z,1.00
2023-01-18T12:15:55.018Z,99.90
2023-01-18T12:18:31.668Z,1.00
2023-01-18T12:21:01.927Z,1.00
2023-01-18T12:24:04.298Z,1.00
2023-01-18T12:26:39.491Z,1.00
2023-01-18T12:29:24.253Z,1.00
2023-01-18T12:32:00.429Z,1.00
2023-01-18T12:34:31.441Z,1.00
2023-01-18T12:37:14.599Z,1.00
2023-01-18T12:39:54.620Z,1.00
2023-01-18T12:42:28.493Z,1.00
2023-01-18T12:45:05.120Z,1.00
2023-01-18T12:47:36.270Z,99.90
2023-01-18T12:50:08.749Z,99.90
2023-01-18T12:52:40.798Z,99.90
2023-01-18T12:55:16.549Z,99.90
2023-01-18T12:57:46.595Z,99.90
2023-01-18T13:00:18.113Z,99.90
2023-01-18T13:02:48.265Z,99.90
2023-01-18T13:05:20.248Z,99.90
2023-01-18T13:07:49.935Z,99.90
2023-01-18T13:10:21.499Z,99.90
2023-01-18T13:12:50.397Z,99.90
2023-01-18T13:15:24.828Z,99.90
2023-01-18T13:17:57.268Z,99.90
2023-01-18T13:20:30.027Z,99.90
2023-01-18T13:23:03.624Z,99.90
2023-01-18T13:25:41.815Z,99.90
2023-01-18T13:28:18.138Z,99.90
2023-01-18T13:30:53.161Z,99.90
2023-01-18T13:33:24.091Z,99.90
2023-01-18T13:35:54.494Z,99.90
2023-01-18T13:38:40.215Z,99.90
2023-01-18T13:41:12.161Z,99.90
2023-01-18T13:44:05.066Z,99.90
2023-01-18T13:46:35.473Z,1.00
2023-01-18T13:49:37.263Z,99.90
2023-01-18T13:52:31.619Z,99.90
2023-01-18T13:55:05.433Z,1.00
2023-01-18T13:57:35.762Z,1.00
2023-01-18T14:00:05.315Z,1.00
2023-01-18T14:02:36.021Z,99.90
2023-01-18T14:05:09.142Z,99.90
2023-01-18T14:07:42.356Z,99.90
2023-01-18T14:10:25.211Z,1.00
2023-01-18T14:12:55.678Z,1.00
2023-01-18T14:15:30.216Z,99.90
2023-01-18T14:17:59.423Z,1.00
2023-01-18T14:21:00.272Z,1.00
2023-01-18T14:24:11.296Z,34.40
2023-01-18T14:26:40.524Z,99.90
2023-01-18T14:29:13.273Z,99.90
2023-01-18T14:31:43.931Z,99.90
2023-01-18T14:34:45.187Z,99.90
2023-01-18T14:37:27.206Z,99.90
2023-01-18T14:40:18.810Z,99.90
2023-01-18T14:42:52.025Z,99.90
2023-01-18T14:45:27.543Z,99.90
2023-01-18T14:47:56.537Z,1.00
2023-01-18T14:50:24.970Z,1.00
2023-01-18T14:52:53.560Z,1.00
2023-01-18T14:55:25.651Z,1.00
2023-01-18T14:57:53.904Z,99.90
2023-01-18T15:00:23.486Z,99.90
2023-01-18T15:02:53.459Z,99.90
2023-01-18T15:05:21.880Z,99.90
2023-01-18T15:07:53.134Z,99.90
2023-01-18T15:10:21.495Z,99.90
2023-01-18T15:12:50.655Z,99.90
2023-01-18T15:15:22.305Z,1.00
2023-01-18T15:17:52.443Z,1.00
2023-01-18T15:20:20.781Z,1.00
2023-01-18T15:22:51.042Z,1.00
2023-01-18T15:25:20.930Z,1.00
2023-01-18T15:27:51.399Z,1.00
2023-01-18T15:30:20.716Z,1.00
2023-01-18T15:32:49.192Z,1.00
2023-01-18T15:35:19.034Z,99.90
2023-01-18T15:37:47.303Z,99.90
2023-01-18T15:40:26.971Z,99.90
2023-01-18T15:43:04.254Z,99.90
2023-01-18T15:45:34.184Z,99.90
2023-01-18T15:48:03.409Z,89.80
2023-01-18T15:50:36.617Z,1.00
2023-01-18T15:53:12.025Z,1.00
2023-01-18T15:55:41.830Z,1.00
2023-01-18T15:58:13.104Z,99.90
2023-01-18T16:00:43.113Z,56.90
2023-01-18T16:03:19.325Z,1.00
2023-01-18T16:06:01.088Z,1.00
2023-01-18T16:08:29.462Z,1.00
2023-01-18T16:10:57.926Z,99.90
2023-01-18T16:13:37.025Z,99.90
2023-01-18T16:16:22.848Z,99.90
2023-01-18T16:18:53.263Z,99.90
2023-01-18T16:21:27.492Z,99.90
2023-01-18T16:23:56.662Z,99.90
2023-01-18T16:26:26.809Z,99.90
2023-01-18T16:28:55.115Z,99.90
2023-01-18T16:31:24.321Z,99.90
2023-01-18T16:33:52.682Z,99.90
2023-01-18T16:36:21.038Z,98.00
2023-01-18T16:38:50.665Z,86.20
2023-01-18T16:41:19.157Z,90.60
2023-01-18T16:43:48.252Z,92.00
2023-01-18T16:46:16.616Z,99.90
2023-01-18T16:48:44.961Z,99.90
2023-01-18T16:51:16.189Z,99.90
2023-01-18T16:53:44.476Z,99.90
2023-01-18T16:56:16.854Z,99.90
2023-01-18T16:58:45.281Z,99.90
2023-01-18T17:01:14.550Z,99.90
2023-01-18T17:03:42.989Z,83.40
2023-01-18T17:06:14.521Z,47.90
2023-01-18T17:08:42.848Z,1.00
2023-01-18T17:11:11.999Z,1.00
2023-01-18T17:13:41.687Z,1.00
2023-01-18T17:16:13.553Z,1.00
2023-01-18T17:18:41.806Z,1.00
2023-01-18T17:21:11.191Z,1.00
2023-01-18T17:23:40.123Z,1.00
2023-01-18T17:26:08.713Z,1.00
2023-01-18T17:28:36.964Z,1.00
2023-01-18T17:31:07.064Z,1.00
2023-01-18T17:33:38.566Z,1.00
2023-01-18T17:36:09.012Z,1.00
2023-01-18T17:38:37.661Z,1.00
2023-01-18T17:41:08.232Z,1.00
2023-01-18T17:43:37.897Z,1.00
2023-01-18T17:46:07.871Z,99.90
2023-01-18T17:48:36.244Z,99.90
2023-01-18T17:51:06.567Z,99.90
2023-01-18T17:53:34.825Z,99.90
2023-01-18T17:56:03.774Z,99.90
2023-01-18T17:58:32.401Z,99.90
2023-01-18T18:01:07.747Z,99.90
2023-01-18T18:03:35.996Z,99.90
2023-01-18T18:06:04.293Z,96.90
2023-01-18T18:08:32.778Z,90.20
2023-01-18T18:11:02.399Z,71.50
2023-01-18T18:13:30.664Z,90.80
2023-01-18T18:15:59.055Z,82.80
2023-01-18T18:18:28.713Z,99.90
2023-01-18T18:21:00.263Z,99.90
2023-01-18T18:23:28.741Z,99.90
2023-01-18T18:25:57.182Z,99.90
2023-01-18T18:28:27.499Z,99.90
2023-01-18T18:30:56.766Z,99.90
2023-01-18T18:33:25.813Z,99.90
2023-01-18T18:35:55.616Z,99.90
2023-01-18T18:38:24.083Z,99.90
2023-01-18T18:40:52.459Z,99.90
2023-01-18T18:43:20.720Z,92.70
2023-01-18T18:45:49.129Z,73.80
2023-01-18T18:48:17.403Z,61.60
2023-01-18T18:50:46.889Z,86.60
2023-01-18T18:53:19.567Z,83.00
2023-01-18T18:55:49.691Z,99.90
2023-01-18T18:58:17.933Z,99.90
2023-01-18T19:00:47.026Z,86.30
2023-01-18T19:03:15.374Z,99.90
2023-01-18T19:05:43.672Z,99.90
2023-01-18T19:08:11.967Z,99.90
2023-01-18T19:10:41.681Z,99.90
2023-01-18T19:13:10.729Z,99.90
2023-01-18T19:15:39.055Z,99.90
2023-01-18T19:18:07.551Z,99.90
2023-01-18T19:20:35.868Z,99.90
2023-01-18T19:23:04.227Z,99.90
2023-01-18T19:25:32.684Z,99.90
2023-01-18T19:28:02.349Z,99.90
2023-01-18T19:30:31.592Z,99.90
2023-01-18T19:33:01.147Z,99.90
2023-01-18T19:35:30.823Z,99.90
2023-01-18T19:38:00.910Z,99.90
2023-01-18T19:40:29.216Z,99.90
2023-01-18T19:42:59.900Z,99.90
2023-01-18T19:45:30.167Z,99.90
2023-01-18T19:47:59.721Z,99.90
2023-01-18T19:50:29.463Z,99.90
2023-01-18T19:52:58.242Z,99.90
2023-01-18T19:55:26.742Z,99.90
2023-01-18T19:57:56.762Z,99.90
2023-01-18T20:00:25.879Z,99.90
2023-01-18T20:02:55.681Z,99.90
2023-01-18T20:05:24.008Z,99.90
2023-01-18T20:07:52.435Z,99.90
2023-01-18T20:10:20.936Z,99.90
2023-01-18T20:12:49.507Z,99.90
2023-01-18T20:15:19.083Z,99.90
2023-01-18T20:17:47.380Z,99.90
2023-01-18T20:20:24.282Z,99.90
2023-01-18T20:23:00.237Z,99.90
2023-01-18T20:25:28.799Z,1.00
2023-01-18T20:27:57.085Z,1.00
2023-01-18T20:30:25.492Z,1.00
2023-01-18T20:32:53.894Z,1.00
2023-01-18T20:35:23.630Z,1.00
2023-01-18T20:37:52.208Z,1.00
2023-01-18T20:40:20.732Z,1.00
2023-01-18T20:42:49.039Z,1.00
2023-01-18T20:45:17.524Z,1.00
2023-01-18T20:47:45.898Z,1.00
2023-01-18T20:50:14.220Z,1.00
2023-01-18T20:52:44.791Z,1.00
2023-01-18T20:55:14.866Z,1.00
2023-01-18T20:57:43.188Z,13.40
2023-01-18T21:00:12.846Z,1.00
2023-01-18T21:02:41.716Z,1.00
2023-01-18T21:05:10.543Z,8.00
2023-01-18T21:07:40.805Z,7.30
2023-01-18T21:10:12.563Z,64.10
2023-01-18T21:12:41.471Z,78.80
2023-01-18T21:15:10.479Z,1.00
2023-01-18T21:17:39.776Z,1.00
2023-01-18T21:20:09.292Z,1.00
2023-01-18T21:22:37.562Z,23.90
2023-01-18T21:25:06.499Z,1.00
2023-01-18T21:27:36.654Z,1.00
2023-01-18T21:30:05.427Z,1.00
2023-01-18T21:32:33.715Z,1.00
2023-01-18T21:35:02.162Z,1.00
2023-01-18T21:37:30.454Z,1.00
2023-01-18T21:40:00.771Z,1.00
2023-01-18T21:42:46.619Z,1.00
2023-01-18T21:45:33.980Z,1.00
2023-01-18T21:48:07.361Z,1.00
2023-01-18T21:50:53.106Z,1.00
2023-01-18T21:53:38.872Z,1.00
2023-01-18T21:56:07.644Z,1.00
2023-01-18T21:58:53.985Z,22.10
2023-01-18T22:01:24.798Z,55.60
2023-01-18T22:04:10.750Z,93.90
2023-01-18T22:06:39.081Z,99.90
2023-01-18T22:09:07.836Z,9.60
2023-01-18T22:11:36.139Z,1.00
2023-01-18T22:14:05.019Z,1.00
2023-01-18T22:16:34.687Z,28.60
2023-01-18T22:19:04.890Z,18.60
2023-01-18T22:21:33.461Z,99.90
2023-01-18T22:24:01.686Z,97.70
2023-01-18T22:26:30.696Z,35.60
2023-01-18T22:28:59.119Z,99.90
2023-01-18T22:31:27.594Z,99.90
2023-01-18T22:33:58.209Z,99.90
2023-01-18T22:36:27.224Z,99.90
2023-01-18T22:38:55.511Z,99.90
2023-01-18T22:41:24.405Z,99.90
2023-01-18T22:43:53.493Z,99.90
2023-01-18T22:46:22.291Z,99.90
2023-01-18T22:48:50.587Z,99.90
2023-01-18T22:51:21.412Z,99.90
2023-01-18T22:53:49.693Z,99.90
2023-01-18T22:56:19.084Z,99.90
2023-01-18T22:58:47.495Z,99.90
2023-01-18T23:01:16.941Z,99.90
2023-01-18T23:03:45.439Z,99.90
2023-01-18T23:06:13.769Z,99.90
2023-01-18T23:08:46.203Z,99.90
2023-01-18T23:11:15.555Z,1.00
2023-01-18T23:13:44.744Z,1.00
2023-01-18T23:16:32.206Z,1.00
2023-01-18T23:19:01.714Z,1.00
2023-01-18T23:21:29.999Z,99.90
2023-01-18T23:23:59.707Z,1.00
2023-01-18T23:26:28.027Z,1.00
2023-01-18T23:28:56.357Z,1.00
2023-01-18T23:31:24.662Z,99.90
2023-01-18T23:33:53.129Z,51.00
2023-01-18T23:36:23.646Z,1.00
2023-01-18T23:39:09.356Z,99.90
2023-01-18T23:41:56.382Z,99.90
2023-01-18T23:44:42.150Z,99.90
2023-01-18T23:47:27.646Z,99.90
2023-01-18T23:50:13.340Z,99.90
2023-01-18T23:52:58.727Z,99.90
2023-01-18T23:55:27.075Z,99.90
2023-01-18T23:57:56.767Z,99.90
